Liguria — IRKJ — position and weather

sailwx.info

Track history (hours):
 
Tides and Currents Weather Stations Pressure Air Temp Water Temp Dewpoint Dewpoint Depression Visibility Wind Speed Wind Dir Waves Ship Positions

Liguria

Last reported at 2017-Jan-21 13:28 UTC. Time now 2017-Jan-21 21:38 UTC.
Position N 44°18' E 008°29'.

Length 30 m; draft 4.5 m.

Type: Tug. MMSI: 247228500.

Date/timePositionNaut miles runAvg speedWind from/ knotsBaromVisibWave heightAir tempDewpointWater temp
2017-Jan-21 13:28N 44°18' E 008°29'0 0.0
2017-Jan-21 12:28N 44°18' E 008°29'0 0.0
2017-Jan-21 11:28N 44°18' E 008°29'0 0.0
2017-Jan-21 10:28N 44°18' E 008°29'0 0.0
2017-Jan-21 09:28N 44°18' E 008°29'0 0.0
2017-Jan-21 08:28N 44°18' E 008°29'0 0.0
2017-Jan-21 07:28N 44°18' E 008°29'0 0.0
2017-Jan-21 06:28N 44°18' E 008°29'0 0.2
2017-Jan-21 05:31N 44°19' E 008°29'0 0.2
2017-Jan-21 04:28N 44°18' E 008°29'0 0.0
2017-Jan-20 17:33N 44°19' E 008°30'0 0.3
2017-Jan-20 16:31N 44°18' E 008°29'2 2.3
2017-Jan-20 15:33N 44°17' E 008°28'0 0.3
2017-Jan-20 14:34N 44°17' E 008°28'2 0.4
2017-Jan-20 09:03N 44°18' E 008°29'0 0.0
2017-Jan-20 08:30N 44°18' E 008°29'0 0.0
2017-Jan-20 07:33N 44°18' E 008°29'0 0.0
2017-Jan-20 06:33N 44°18' E 008°29'0 0.0
2017-Jan-20 05:27N 44°18' E 008°29'0 0.0
2017-Jan-20 04:27N 44°18' E 008°29'0 0.0
2017-Jan-20 03:33N 44°18' E 008°29'0 0.0
2017-Jan-20 02:27N 44°18' E 008°29'0 0.0
2017-Jan-20 01:33N 44°18' E 008°29'0 0.0
2017-Jan-20 00:33N 44°18' E 008°29'0 0.0
2017-Jan-19 23:33N 44°18' E 008°29'0 0.0
2017-Jan-19 22:33N 44°18' E 008°29'0 0.0
2017-Jan-19 21:33N 44°18' E 008°29'0 0.0
2017-Jan-19 20:33N 44°18' E 008°29'0 0.0
2017-Jan-19 19:33N 44°18' E 008°29'0 0.0
2017-Jan-19 18:20N 44°18' E 008°29'1 0.7
2017-Jan-19 17:33N 44°18' E 008°30'3 3.1
2017-Jan-19 16:30N 44°16' E 008°27'0 0.0
2017-Jan-19 15:30N 44°16' E 008°27'0 0.0
2017-Jan-19 14:30N 44°16' E 008°27'0 0.0
2017-Jan-19 13:33N 44°16' E 008°27'1 0.8
2017-Jan-19 12:33N 44°16' E 008°28'3 2.7
2017-Jan-19 11:33N 44°18' E 008°30'2 2.3
2017-Jan-19 10:33N 44°17' E 008°28'0 0.0
2017-Jan-19 09:33N 44°17' E 008°28'1 1.1
2017-Jan-19 08:33N 44°16' E 008°29'3 2.8
2017-Jan-19 07:33N 44°19' E 008°30'0 0.5
2017-Jan-19 06:33N 44°19' E 008°30'0 0.3
2017-Jan-19 05:33N 44°19' E 008°30'1 0.1
2017-Jan-18 23:30N 44°18' E 008°29'0 0.0
2017-Jan-18 22:30N 44°18' E 008°29'0 0.0
2017-Jan-18 21:33N 44°18' E 008°29'0 0.0
2017-Jan-18 20:33N 44°18' E 008°29'0 0.0
2017-Jan-18 19:33N 44°18' E 008°29'0 0.0
2017-Jan-18 18:33N 44°18' E 008°29'1 0.7
2017-Jan-18 17:33N 44°19' E 008°30'0 0.3
2017-Jan-18 16:33N 44°19' E 008°30'0 0.1
2017-Jan-18 15:33N 44°19' E 008°30'0 0.4
2017-Jan-18 14:33N 44°19' E 008°30'3 3.4
2017-Jan-18 13:33N 44°16' E 008°28'0 0.4
2017-Jan-18 12:33N 44°16' E 008°27'1 0.6
2017-Jan-18 11:33N 44°16' E 008°28'3 3.4
2017-Jan-18 10:33N 44°19' E 008°30'1 0.8
2017-Jan-18 09:33N 44°18' E 008°29'1 0.8
2017-Jan-18 08:33N 44°19' E 008°31'0 0.4
2017-Jan-18 07:33N 44°19' E 008°30'0 0.3
2017-Jan-18 06:33N 44°19' E 008°30'0 0.3
2017-Jan-18 05:33N 44°19' E 008°30'1 0.8
2017-Jan-18 04:33N 44°18' E 008°29'0 0.0
2017-Jan-17 12:33N 44°18' E 008°29'1 0.8
2017-Jan-17 11:33N 44°19' E 008°30'1 0.8
2017-Jan-17 10:34N 44°18' E 008°29'0 0.0
2017-Jan-17 09:34N 44°18' E 008°29'0 0.0
2017-Jan-17 08:34N 44°18' E 008°29'0 0.0
2017-Jan-17 07:33N 44°18' E 008°29'0 0.0
2017-Jan-17 06:33N 44°18' E 008°29'0 0.0
2017-Jan-17 05:33N 44°18' E 008°29'0 0.0
2017-Jan-17 04:33N 44°18' E 008°29'0 0.0
2017-Jan-16 21:22N 44°18' E 008°29'0 0.4
2017-Jan-16 20:33N 44°19' E 008°30'1 0.7
2017-Jan-16 19:33N 44°19' E 008°31'1 1.0
2017-Jan-16 18:33N 44°18' E 008°29'0 0.0
2017-Jan-16 17:33N 44°18' E 008°29'0 0.0
2017-Jan-16 16:33N 44°18' E 008°29'0 0.0
2017-Jan-16 15:33N 44°18' E 008°29'0 0.0
2017-Jan-16 14:33N 44°18' E 008°29'0 0.0
2017-Jan-16 13:33N 44°18' E 008°29'0 0.0
2017-Jan-16 12:33N 44°18' E 008°29'1 0.8
2017-Jan-16 11:33N 44°19' E 008°30'1 0.8
2017-Jan-16 10:33N 44°18' E 008°29'0 0.0
2017-Jan-16 09:33N 44°18' E 008°29'0 0.0
2017-Jan-16 08:33N 44°18' E 008°29'0 0.0
2017-Jan-16 07:33N 44°18' E 008°29'0 0.0
2017-Jan-16 06:33N 44°18' E 008°29'0 0.0
2017-Jan-16 05:33N 44°18' E 008°29'0 0.0
2017-Jan-16 04:33N 44°18' E 008°29'0 0.0
2017-Jan-15 12:33N 44°18' E 008°29'0 0.0
2017-Jan-15 11:33N 44°18' E 008°29'0 0.0
2017-Jan-15 10:33N 44°18' E 008°29'0 0.0
2017-Jan-15 09:33N 44°18' E 008°29'0 0.0
2017-Jan-15 08:33N 44°18' E 008°29'0 0.0
2017-Jan-15 07:33N 44°18' E 008°29'0 0.0
2017-Jan-15 06:33N 44°18' E 008°29'0 0.0
2017-Jan-15 05:33N 44°18' E 008°29'0 0.0
2017-Jan-15 04:33N 44°18' E 008°29'0 0.0
2017-Jan-14 18:25N 44°18' E 008°29'0 0.4
2017-Jan-14 17:33N 44°19' E 008°30'0 0.3
2017-Jan-14 16:33N 44°19' E 008°29'0 0.1
2017-Jan-14 15:34N 44°18' E 008°29'0 0.0
2017-Jan-14 14:34N 44°18' E 008°29'0 0.0
2017-Jan-14 13:34N 44°18' E 008°29'0 0.0
2017-Jan-14 12:34N 44°18' E 008°29'0 0.0
2017-Jan-14 11:34N 44°18' E 008°29'0 0.0
2017-Jan-14 10:34N 44°18' E 008°29'0 0.0
2017-Jan-14 09:34N 44°18' E 008°29'0 0.0
2017-Jan-14 08:33N 44°18' E 008°29'0 0.0
2017-Jan-14 07:34N 44°18' E 008°29'0 0.0
2017-Jan-14 06:33N 44°18' E 008°29'1 0.5
2017-Jan-14 05:34N 44°19' E 008°30'1 0.5
2017-Jan-14 04:34N 44°18' E 008°29'0 0.0
2017-Jan-13 22:33N 44°18' E 008°29'0 0.0
2017-Jan-13 21:33N 44°19' E 008°29'0 0.0
2017-Jan-13 16:08N 44°18' E 008°29'0 0.0
2017-Jan-13 15:29N 44°18' E 008°29'0 0.0
2017-Jan-13 14:29N 44°18' E 008°29'0 0.0
2017-Jan-13 13:05N 44°18' E 008°29'0 0.0
2017-Jan-13 12:29N 44°18' E 008°29'0 0.0
2017-Jan-13 11:29N 44°18' E 008°29'0 0.0
2017-Jan-13 10:29N 44°18' E 008°29'0 0.0
2017-Jan-13 09:29N 44°18' E 008°29'0 0.0
2017-Jan-13 08:17N 44°18' E 008°29'0 0.0
2017-Jan-13 07:29N 44°18' E 008°29'0 0.0
2017-Jan-13 06:29N 44°18' E 008°29'0 0.0
2017-Jan-13 05:29N 44°18' E 008°29'0 0.0
2017-Jan-13 04:29N 44°18' E 008°29'0 0.0
2017-Jan-13 03:29N 44°18' E 008°29'0 0.0
2017-Jan-13 02:29N 44°18' E 008°29'0 0.0
2017-Jan-13 01:29N 44°18' E 008°29'0 0.4
2017-Jan-13 00:33N 44°19' E 008°30'0 0.4
2017-Jan-12 23:32N 44°18' E 008°29'0 0.0
2017-Jan-12 14:12N 44°18' E 008°29'0 0.0
2017-Jan-12 13:30N 44°18' E 008°29'3 3.3
2017-Jan-12 12:33N 44°16' E 008°27'1 0.5
2017-Jan-12 11:32N 44°16' E 008°27'3 2.8
2017-Jan-12 10:32N 44°18' E 008°29'0 0.0
2017-Jan-12 09:32N 44°18' E 008°29'0 0.0
2017-Jan-12 08:32N 44°18' E 008°29'0 0.0
2017-Jan-12 07:32N 44°18' E 008°29'0 0.0
2017-Jan-12 06:32N 44°18' E 008°29'0 0.0
2017-Jan-12 05:32N 44°18' E 008°29'0 0.0
2017-Jan-11 22:28N 44°18' E 008°29'0 0.0
2017-Jan-11 21:28N 44°18' E 008°29'0 0.0
2017-Jan-11 20:28N 44°18' E 008°29'0 0.0
2017-Jan-11 19:28N 44°18' E 008°29'0 0.0
2017-Jan-11 18:28N 44°18' E 008°29'0 0.0
2017-Jan-11 17:28N 44°18' E 008°29'0 0.0
2017-Jan-11 16:28N 44°18' E 008°29'0 0.0
2017-Jan-11 15:28N 44°18' E 008°29'0 0.0
2017-Jan-11 14:28N 44°18' E 008°29'  
Track history (hours):
 
Tides and Currents Weather Stations Pressure Air Temp Water Temp Dewpoint Dewpoint Depression Visibility Wind Speed Wind Dir Waves Ship Positions

Liguria

Last reported at 2017-Jan-21 13:28 UTC. Time now 2017-Jan-21 21:38 UTC.
Position N 44°18' E 008°29'.

Length 30 m; draft 4.5 m.

Type: Tug. MMSI: 247228500.

Date/timePositionNaut miles runAvg speedWind from/ knotsBaromVisibWave heightAir tempDewpointWater temp
2017-Jan-21 13:28N 44°18' E 008°29'0 0.0
2017-Jan-21 12:28N 44°18' E 008°29'0 0.0
2017-Jan-21 11:28N 44°18' E 008°29'0 0.0
2017-Jan-21 10:28N 44°18' E 008°29'0 0.0
2017-Jan-21 09:28N 44°18' E 008°29'0 0.0
2017-Jan-21 08:28N 44°18' E 008°29'0 0.0
2017-Jan-21 07:28N 44°18' E 008°29'0 0.0
2017-Jan-21 06:28N 44°18' E 008°29'0 0.2
2017-Jan-21 05:31N 44°19' E 008°29'0 0.2
2017-Jan-21 04:28N 44°18' E 008°29'0 0.0
2017-Jan-20 17:33N 44°19' E 008°30'0 0.3
2017-Jan-20 16:31N 44°18' E 008°29'2 2.3
2017-Jan-20 15:33N 44°17' E 008°28'0 0.3
2017-Jan-20 14:34N 44°17' E 008°28'2 0.4
2017-Jan-20 09:03N 44°18' E 008°29'0 0.0
2017-Jan-20 08:30N 44°18' E 008°29'0 0.0
2017-Jan-20 07:33N 44°18' E 008°29'0 0.0
2017-Jan-20 06:33N 44°18' E 008°29'0 0.0
2017-Jan-20 05:27N 44°18' E 008°29'0 0.0
2017-Jan-20 04:27N 44°18' E 008°29'0 0.0
2017-Jan-20 03:33N 44°18' E 008°29'0 0.0
2017-Jan-20 02:27N 44°18' E 008°29'0 0.0
2017-Jan-20 01:33N 44°18' E 008°29'0 0.0
2017-Jan-20 00:33N 44°18' E 008°29'0 0.0
2017-Jan-19 23:33N 44°18' E 008°29'0 0.0
2017-Jan-19 22:33N 44°18' E 008°29'0 0.0
2017-Jan-19 21:33N 44°18' E 008°29'0 0.0
2017-Jan-19 20:33N 44°18' E 008°29'0 0.0
2017-Jan-19 19:33N 44°18' E 008°29'0 0.0
2017-Jan-19 18:20N 44°18' E 008°29'1 0.7
2017-Jan-19 17:33N 44°18' E 008°30'3 3.1
2017-Jan-19 16:30N 44°16' E 008°27'0 0.0
2017-Jan-19 15:30N 44°16' E 008°27'0 0.0
2017-Jan-19 14:30N 44°16' E 008°27'0 0.0
2017-Jan-19 13:33N 44°16' E 008°27'1 0.8
2017-Jan-19 12:33N 44°16' E 008°28'3 2.7
2017-Jan-19 11:33N 44°18' E 008°30'2 2.3
2017-Jan-19 10:33N 44°17' E 008°28'0 0.0
2017-Jan-19 09:33N 44°17' E 008°28'1 1.1
2017-Jan-19 08:33N 44°16' E 008°29'3 2.8
2017-Jan-19 07:33N 44°19' E 008°30'0 0.5
2017-Jan-19 06:33N 44°19' E 008°30'0 0.3
2017-Jan-19 05:33N 44°19' E 008°30'1 0.1
2017-Jan-18 23:30N 44°18' E 008°29'0 0.0
2017-Jan-18 22:30N 44°18' E 008°29'0 0.0
2017-Jan-18 21:33N 44°18' E 008°29'0 0.0
2017-Jan-18 20:33N 44°18' E 008°29'0 0.0
2017-Jan-18 19:33N 44°18' E 008°29'0 0.0
2017-Jan-18 18:33N 44°18' E 008°29'1 0.7
2017-Jan-18 17:33N 44°19' E 008°30'0 0.3
2017-Jan-18 16:33N 44°19' E 008°30'0 0.1
2017-Jan-18 15:33N 44°19' E 008°30'0 0.4
2017-Jan-18 14:33N 44°19' E 008°30'3 3.4
2017-Jan-18 13:33N 44°16' E 008°28'0 0.4
2017-Jan-18 12:33N 44°16' E 008°27'1 0.6
2017-Jan-18 11:33N 44°16' E 008°28'3 3.4
2017-Jan-18 10:33N 44°19' E 008°30'1 0.8
2017-Jan-18 09:33N 44°18' E 008°29'1 0.8
2017-Jan-18 08:33N 44°19' E 008°31'0 0.4
2017-Jan-18 07:33N 44°19' E 008°30'0 0.3
2017-Jan-18 06:33N 44°19' E 008°30'0 0.3
2017-Jan-18 05:33N 44°19' E 008°30'1 0.8
2017-Jan-18 04:33N 44°18' E 008°29'0 0.0
2017-Jan-17 12:33N 44°18' E 008°29'1 0.8
2017-Jan-17 11:33N 44°19' E 008°30'1 0.8
2017-Jan-17 10:34N 44°18' E 008°29'0 0.0
2017-Jan-17 09:34N 44°18' E 008°29'0 0.0
2017-Jan-17 08:34N 44°18' E 008°29'0 0.0
2017-Jan-17 07:33N 44°18' E 008°29'0 0.0
2017-Jan-17 06:33N 44°18' E 008°29'0 0.0
2017-Jan-17 05:33N 44°18' E 008°29'0 0.0
2017-Jan-17 04:33N 44°18' E 008°29'0 0.0
2017-Jan-16 21:22N 44°18' E 008°29'0 0.4
2017-Jan-16 20:33N 44°19' E 008°30'1 0.7
2017-Jan-16 19:33N 44°19' E 008°31'1 1.0
2017-Jan-16 18:33N 44°18' E 008°29'0 0.0
2017-Jan-16 17:33N 44°18' E 008°29'0 0.0
2017-Jan-16 16:33N 44°18' E 008°29'0 0.0
2017-Jan-16 15:33N 44°18' E 008°29'0 0.0
2017-Jan-16 14:33N 44°18' E 008°29'0 0.0
2017-Jan-16 13:33N 44°18' E 008°29'0 0.0
2017-Jan-16 12:33N 44°18' E 008°29'1 0.8
2017-Jan-16 11:33N 44°19' E 008°30'1 0.8
2017-Jan-16 10:33N 44°18' E 008°29'0 0.0
2017-Jan-16 09:33N 44°18' E 008°29'0 0.0
2017-Jan-16 08:33N 44°18' E 008°29'0 0.0
2017-Jan-16 07:33N 44°18' E 008°29'0 0.0
2017-Jan-16 06:33N 44°18' E 008°29'0 0.0
2017-Jan-16 05:33N 44°18' E 008°29'0 0.0
2017-Jan-16 04:33N 44°18' E 008°29'0 0.0
2017-Jan-15 12:33N 44°18' E 008°29'0 0.0
2017-Jan-15 11:33N 44°18' E 008°29'0 0.0
2017-Jan-15 10:33N 44°18' E 008°29'0 0.0
2017-Jan-15 09:33N 44°18' E 008°29'0 0.0
2017-Jan-15 08:33N 44°18' E 008°29'0 0.0
2017-Jan-15 07:33N 44°18' E 008°29'0 0.0
2017-Jan-15 06:33N 44°18' E 008°29'0 0.0
2017-Jan-15 05:33N 44°18' E 008°29'0 0.0
2017-Jan-15 04:33N 44°18' E 008°29'0 0.0
2017-Jan-14 18:25N 44°18' E 008°29'0 0.4
2017-Jan-14 17:33N 44°19' E 008°30'0 0.3
2017-Jan-14 16:33N 44°19' E 008°29'0 0.1
2017-Jan-14 15:34N 44°18' E 008°29'0 0.0
2017-Jan-14 14:34N 44°18' E 008°29'0 0.0
2017-Jan-14 13:34N 44°18' E 008°29'0 0.0
2017-Jan-14 12:34N 44°18' E 008°29'0 0.0
2017-Jan-14 11:34N 44°18' E 008°29'0 0.0
2017-Jan-14 10:34N 44°18' E 008°29'0 0.0
2017-Jan-14 09:34N 44°18' E 008°29'0 0.0
2017-Jan-14 08:33N 44°18' E 008°29'0 0.0
2017-Jan-14 07:34N 44°18' E 008°29'0 0.0
2017-Jan-14 06:33N 44°18' E 008°29'1 0.5
2017-Jan-14 05:34N 44°19' E 008°30'1 0.5
2017-Jan-14 04:34N 44°18' E 008°29'0 0.0
2017-Jan-13 22:33N 44°18' E 008°29'0 0.0
2017-Jan-13 21:33N 44°19' E 008°29'0 0.0
2017-Jan-13 16:08N 44°18' E 008°29'0 0.0
2017-Jan-13 15:29N 44°18' E 008°29'0 0.0
2017-Jan-13 14:29N 44°18' E 008°29'0 0.0
2017-Jan-13 13:05N 44°18' E 008°29'0 0.0
2017-Jan-13 12:29N 44°18' E 008°29'0 0.0
2017-Jan-13 11:29N 44°18' E 008°29'0 0.0
2017-Jan-13 10:29N 44°18' E 008°29'0 0.0
2017-Jan-13 09:29N 44°18' E 008°29'0 0.0
2017-Jan-13 08:17N 44°18' E 008°29'0 0.0
2017-Jan-13 07:29N 44°18' E 008°29'0 0.0
2017-Jan-13 06:29N 44°18' E 008°29'0 0.0
2017-Jan-13 05:29N 44°18' E 008°29'0 0.0
2017-Jan-13 04:29N 44°18' E 008°29'0 0.0
2017-Jan-13 03:29N 44°18' E 008°29'0 0.0
2017-Jan-13 02:29N 44°18' E 008°29'0 0.0
2017-Jan-13 01:29N 44°18' E 008°29'0 0.4
2017-Jan-13 00:33N 44°19' E 008°30'0 0.4
2017-Jan-12 23:32N 44°18' E 008°29'0 0.0
2017-Jan-12 14:12N 44°18' E 008°29'0 0.0
2017-Jan-12 13:30N 44°18' E 008°29'3 3.3
2017-Jan-12 12:33N 44°16' E 008°27'1 0.5
2017-Jan-12 11:32N 44°16' E 008°27'3 2.8
2017-Jan-12 10:32N 44°18' E 008°29'0 0.0
2017-Jan-12 09:32N 44°18' E 008°29'0 0.0
2017-Jan-12 08:32N 44°18' E 008°29'0 0.0
2017-Jan-12 07:32N 44°18' E 008°29'0 0.0
2017-Jan-12 06:32N 44°18' E 008°29'0 0.0
2017-Jan-12 05:32N 44°18' E 008°29'0 0.0
2017-Jan-11 22:28N 44°18' E 008°29'0 0.0
2017-Jan-11 21:28N 44°18' E 008°29'0 0.0
2017-Jan-11 20:28N 44°18' E 008°29'0 0.0
2017-Jan-11 19:28N 44°18' E 008°29'0 0.0
2017-Jan-11 18:28N 44°18' E 008°29'0 0.0
2017-Jan-11 17:28N 44°18' E 008°29'0 0.0
2017-Jan-11 16:28N 44°18' E 008°29'0 0.0
2017-Jan-11 15:28N 44°18' E 008°29'0 0.0
2017-Jan-11 14:28N 44°18' E 008°29'  

Dump ship's entire track history